sensor_id;sensor_type;location;lat;lon;timestamp;P1;durP1;ratioP1;P2;durP2;ratioP2
68700;SDS011;55682;51.114;5.882;2023-03-14T00:00:57;1.94;;;1.67;;
68700;SDS011;55682;51.114;5.882;2023-03-14T00:03:24;1.83;;;1.60;;
68700;SDS011;55682;51.114;5.882;2023-03-14T00:05:49;1.91;;;1.65;;
68700;SDS011;55682;51.114;5.882;2023-03-14T00:08:15;2.01;;;1.70;;
68700;SDS011;55682;51.114;5.882;2023-03-14T00:10:41;1.86;;;1.55;;
68700;SDS011;55682;51.114;5.882;2023-03-14T00:13:07;1.83;;;1.55;;
68700;SDS011;55682;51.114;5.882;2023-03-14T00:15:33;1.93;;;1.61;;
68700;SDS011;55682;51.114;5.882;2023-03-14T00:18:00;1.55;;;1.28;;
68700;SDS011;55682;51.114;5.882;2023-03-14T00:20:26;1.73;;;1.43;;
68700;SDS011;55682;51.114;5.882;2023-03-14T00:22:52;1.68;;;1.37;;
68700;SDS011;55682;51.114;5.882;2023-03-14T00:25:18;1.84;;;1.48;;
68700;SDS011;55682;51.114;5.882;2023-03-14T00:27:44;1.83;;;1.46;;
68700;SDS011;55682;51.114;5.882;2023-03-14T00:30:12;1.84;;;1.44;;
68700;SDS011;55682;51.114;5.882;2023-03-14T00:32:38;1.97;;;1.52;;
68700;SDS011;55682;51.114;5.882;2023-03-14T00:35:03;1.70;;;1.30;;
68700;SDS011;55682;51.114;5.882;2023-03-14T00:37:29;1.56;;;1.20;;
68700;SDS011;55682;51.114;5.882;2023-03-14T00:39:55;1.49;;;1.16;;
68700;SDS011;55682;51.114;5.882;2023-03-14T00:42:21;1.43;;;1.10;;
68700;SDS011;55682;51.114;5.882;2023-03-14T00:44:46;1.59;;;1.21;;
68700;SDS011;55682;51.114;5.882;2023-03-14T00:47:12;1.70;;;1.29;;
68700;SDS011;55682;51.114;5.882;2023-03-14T00:49:38;1.36;;;1.04;;
68700;SDS011;55682;51.114;5.882;2023-03-14T00:52:03;1.53;;;1.18;;
68700;SDS011;55682;51.114;5.882;2023-03-14T00:54:29;1.52;;;1.19;;
68700;SDS011;55682;51.114;5.882;2023-03-14T00:56:55;1.48;;;1.16;;
68700;SDS011;55682;51.114;5.882;2023-03-14T00:59:21;1.68;;;1.31;;
68700;SDS011;55682;51.114;5.882;2023-03-14T01:01:47;1.63;;;1.26;;
68700;SDS011;55682;51.114;5.882;2023-03-14T01:04:12;1.48;;;1.15;;
68700;SDS011;55682;51.114;5.882;2023-03-14T01:06:39;1.49;;;1.17;;
68700;SDS011;55682;51.114;5.882;2023-03-14T01:09:04;1.75;;;1.36;;
68700;SDS011;55682;51.114;5.882;2023-03-14T01:11:31;1.65;;;1.29;;
68700;SDS011;55682;51.114;5.882;2023-03-14T01:13:59;1.48;;;1.17;;
68700;SDS011;55682;51.114;5.882;2023-03-14T01:16:28;1.43;;;1.13;;
68700;SDS011;55682;51.114;5.882;2023-03-14T01:18:59;1.40;;;1.10;;
68700;SDS011;55682;51.114;5.882;2023-03-14T01:21:29;1.57;;;1.22;;
68700;SDS011;55682;51.114;5.882;2023-03-14T01:23:57;1.50;;;1.15;;
68700;SDS011;55682;51.114;5.882;2023-03-14T01:26:25;1.64;;;1.23;;
68700;SDS011;55682;51.114;5.882;2023-03-14T01:28:54;1.94;;;1.46;;
68700;SDS011;55682;51.114;5.882;2023-03-14T01:31:21;1.96;;;1.47;;
68700;SDS011;55682;51.114;5.882;2023-03-14T01:33:49;2.06;;;1.53;;
68700;SDS011;55682;51.114;5.882;2023-03-14T01:36:17;1.85;;;1.38;;
68700;SDS011;55682;51.114;5.882;2023-03-14T01:38:43;2.11;;;1.57;;
68700;SDS011;55682;51.114;5.882;2023-03-14T01:41:14;2.35;;;1.75;;
68700;SDS011;55682;51.114;5.882;2023-03-14T01:43:43;2.04;;;1.55;;
68700;SDS011;55682;51.114;5.882;2023-03-14T01:48:49;2.19;;;1.63;;
68700;SDS011;55682;51.114;5.882;2023-03-14T01:51:33;2.41;;;1.77;;
68700;SDS011;55682;51.114;5.882;2023-03-14T01:54:19;2.25;;;1.65;;
68700;SDS011;55682;51.114;5.882;2023-03-14T01:56:58;2.18;;;1.59;;
68700;SDS011;55682;51.114;5.882;2023-03-14T01:59:36;2.47;;;1.78;;
68700;SDS011;55682;51.114;5.882;2023-03-14T02:02:06;2.56;;;1.84;;
68700;SDS011;55682;51.114;5.882;2023-03-14T02:04:37;2.36;;;1.69;;
68700;SDS011;55682;51.114;5.882;2023-03-14T02:07:07;2.38;;;1.70;;
68700;SDS011;55682;51.114;5.882;2023-03-14T02:09:41;2.58;;;1.82;;
68700;SDS011;55682;51.114;5.882;2023-03-14T02:12:12;2.95;;;2.08;;
68700;SDS011;55682;51.114;5.882;2023-03-14T02:14:46;3.14;;;2.25;;
68700;SDS011;55682;51.114;5.882;2023-03-14T02:17:31;2.90;;;2.05;;
68700;SDS011;55682;51.114;5.882;2023-03-14T02:22:54;2.54;;;1.82;;
68700;SDS011;55682;51.114;5.882;2023-03-14T02:27:53;2.46;;;1.78;;
68700;SDS011;55682;51.114;5.882;2023-03-14T02:30:24;2.75;;;2.01;;
68700;SDS011;55682;51.114;5.882;2023-03-14T02:32:53;2.60;;;1.90;;
68700;SDS011;55682;51.114;5.882;2023-03-14T02:35:43;2.66;;;1.92;;
68700;SDS011;55682;51.114;5.882;2023-03-14T02:38:15;2.79;;;1.98;;
68700;SDS011;55682;51.114;5.882;2023-03-14T02:40:47;3.03;;;2.15;;
68700;SDS011;55682;51.114;5.882;2023-03-14T02:43:14;3.15;;;2.21;;
68700;SDS011;55682;51.114;5.882;2023-03-14T02:45:45;2.56;;;1.79;;
68700;SDS011;55682;51.114;5.882;2023-03-14T02:48:20;3.65;;;2.51;;
68700;SDS011;55682;51.114;5.882;2023-03-14T02:50:52;3.29;;;2.23;;
68700;SDS011;55682;51.114;5.882;2023-03-14T02:53:28;3.49;;;2.34;;
68700;SDS011;55682;51.114;5.882;2023-03-14T02:56:00;2.99;;;2.03;;
68700;SDS011;55682;51.114;5.882;2023-03-14T02:58:26;3.01;;;2.04;;
68700;SDS011;55682;51.114;5.882;2023-03-14T03:01:00;3.75;;;2.54;;
68700;SDS011;55682;51.114;5.882;2023-03-14T03:03:25;3.30;;;2.24;;
68700;SDS011;55682;51.114;5.882;2023-03-14T03:05:52;3.45;;;2.35;;
68700;SDS011;55682;51.114;5.882;2023-03-14T03:08:20;3.54;;;2.42;;
68700;SDS011;55682;51.114;5.882;2023-03-14T03:10:48;3.06;;;2.09;;
68700;SDS011;55682;51.114;5.882;2023-03-14T03:13:14;3.25;;;2.20;;
68700;SDS011;55682;51.114;5.882;2023-03-14T03:15:41;3.64;;;2.49;;
68700;SDS011;55682;51.114;5.882;2023-03-14T03:18:07;3.22;;;2.23;;
68700;SDS011;55682;51.114;5.882;2023-03-14T03:20:34;2.76;;;1.90;;
68700;SDS011;55682;51.114;5.882;2023-03-14T03:23:00;2.99;;;2.05;;
68700;SDS011;55682;51.114;5.882;2023-03-14T03:25:26;3.04;;;2.09;;
68700;SDS011;55682;51.114;5.882;2023-03-14T03:27:52;2.87;;;1.95;;
68700;SDS011;55682;51.114;5.882;2023-03-14T03:30:19;2.50;;;1.71;;
68700;SDS011;55682;51.114;5.882;2023-03-14T03:32:46;2.25;;;1.55;;
68700;SDS011;55682;51.114;5.882;2023-03-14T03:35:12;1.98;;;1.38;;
68700;SDS011;55682;51.114;5.882;2023-03-14T03:37:38;1.94;;;1.36;;
68700;SDS011;55682;51.114;5.882;2023-03-14T03:40:05;2.49;;;1.74;;
68700;SDS011;55682;51.114;5.882;2023-03-14T03:42:34;2.16;;;1.49;;
68700;SDS011;55682;51.114;5.882;2023-03-14T03:45:02;2.13;;;1.46;;
68700;SDS011;55682;51.114;5.882;2023-03-14T03:47:30;2.20;;;1.52;;
68700;SDS011;55682;51.114;5.882;2023-03-14T03:49:56;2.12;;;1.47;;
68700;SDS011;55682;51.114;5.882;2023-03-14T03:52:22;1.70;;;1.18;;
68700;SDS011;55682;51.114;5.882;2023-03-14T03:54:47;1.66;;;1.14;;
68700;SDS011;55682;51.114;5.882;2023-03-14T03:57:13;1.61;;;1.11;;
68700;SDS011;55682;51.114;5.882;2023-03-14T03:59:39;1.39;;;0.95;;
68700;SDS011;55682;51.114;5.882;2023-03-14T04:02:06;1.54;;;1.06;;
68700;SDS011;55682;51.114;5.882;2023-03-14T04:04:32;1.75;;;1.22;;
68700;SDS011;55682;51.114;5.882;2023-03-14T04:07:00;1.21;;;0.86;;
68700;SDS011;55682;51.114;5.882;2023-03-14T04:09:26;1.37;;;0.97;;
68700;SDS011;55682;51.114;5.882;2023-03-14T04:12:17;1.40;;;1.00;;
68700;SDS011;55682;51.114;5.882;2023-03-14T04:15:04;1.43;;;1.02;;
68700;SDS011;55682;51.114;5.882;2023-03-14T04:17:30;1.08;;;0.78;;
68700;SDS011;55682;51.114;5.882;2023-03-14T04:19:56;1.05;;;0.77;;
68700;SDS011;55682;51.114;5.882;2023-03-14T04:22:30;1.35;;;1.01;;
68700;SDS011;55682;51.114;5.882;2023-03-14T04:24:56;1.24;;;0.95;;
68700;SDS011;55682;51.114;5.882;2023-03-14T04:27:21;1.63;;;1.26;;
68700;SDS011;55682;51.114;5.882;2023-03-14T04:29:47;1.54;;;1.23;;
68700;SDS011;55682;51.114;5.882;2023-03-14T04:32:16;1.81;;;1.48;;
68700;SDS011;55682;51.114;5.882;2023-03-14T04:34:42;1.70;;;1.40;;
68700;SDS011;55682;51.114;5.882;2023-03-14T04:37:07;1.83;;;1.50;;
68700;SDS011;55682;51.114;5.882;2023-03-14T04:39:37;1.82;;;1.54;;
68700;SDS011;55682;51.114;5.882;2023-03-14T04:42:10;1.60;;;1.37;;
68700;SDS011;55682;51.114;5.882;2023-03-14T04:44:37;1.29;;;1.13;;
68700;SDS011;55682;51.114;5.882;2023-03-14T04:47:03;1.64;;;1.46;;
68700;SDS011;55682;51.114;5.882;2023-03-14T04:49:29;1.34;;;1.20;;
68700;SDS011;55682;51.114;5.882;2023-03-14T04:51:55;1.11;;;1.01;;
68700;SDS011;55682;51.114;5.882;2023-03-14T04:54:23;1.26;;;1.16;;
68700;SDS011;55682;51.114;5.882;2023-03-14T04:56:53;1.16;;;1.07;;
68700;SDS011;55682;51.114;5.882;2023-03-14T04:59:19;0.85;;;0.78;;
68700;SDS011;55682;51.114;5.882;2023-03-14T05:01:45;1.15;;;1.05;;
68700;SDS011;55682;51.114;5.882;2023-03-14T05:04:41;1.04;;;0.95;;
68700;SDS011;55682;51.114;5.882;2023-03-14T05:07:35;1.00;;;0.92;;
68700;SDS011;55682;51.114;5.882;2023-03-14T05:10:22;0.97;;;0.89;;
68700;SDS011;55682;51.114;5.882;2023-03-14T05:13:03;0.87;;;0.82;;
68700;SDS011;55682;51.114;5.882;2023-03-14T05:16:04;1.00;;;0.93;;
68700;SDS011;55682;51.114;5.882;2023-03-14T05:18:46;1.16;;;1.09;;
68700;SDS011;55682;51.114;5.882;2023-03-14T05:21:33;1.13;;;1.09;;
68700;SDS011;55682;51.114;5.882;2023-03-14T05:24:10;1.08;;;1.04;;
68700;SDS011;55682;51.114;5.882;2023-03-14T05:26:53;1.03;;;1.01;;
68700;SDS011;55682;51.114;5.882;2023-03-14T05:29:33;1.20;;;1.18;;
68700;SDS011;55682;51.114;5.882;2023-03-14T05:32:17;1.09;;;1.08;;
68700;SDS011;55682;51.114;5.882;2023-03-14T05:34:57;0.93;;;0.93;;
68700;SDS011;55682;51.114;5.882;2023-03-14T05:37:47;0.73;;;0.73;;
68700;SDS011;55682;51.114;5.882;2023-03-14T05:40:32;0.74;;;0.74;;
68700;SDS011;55682;51.114;5.882;2023-03-14T05:43:16;0.60;;;0.60;;
68700;SDS011;55682;51.114;5.882;2023-03-14T05:45:52;0.63;;;0.63;;
68700;SDS011;55682;51.114;5.882;2023-03-14T05:48:50;0.70;;;0.70;;
68700;SDS011;55682;51.114;5.882;2023-03-14T05:51:36;0.63;;;0.63;;
68700;SDS011;55682;51.114;5.882;2023-03-14T05:54:24;0.76;;;0.75;;
68700;SDS011;55682;51.114;5.882;2023-03-14T05:57:25;0.72;;;0.72;;
68700;SDS011;55682;51.114;5.882;2023-03-14T06:00:12;0.81;;;0.81;;
68700;SDS011;55682;51.114;5.882;2023-03-14T06:02:38;0.74;;;0.74;;
68700;SDS011;55682;51.114;5.882;2023-03-14T06:05:14;0.72;;;0.72;;
68700;SDS011;55682;51.114;5.882;2023-03-14T06:07:39;0.80;;;0.80;;
68700;SDS011;55682;51.114;5.882;2023-03-14T06:10:05;0.73;;;0.73;;
68700;SDS011;55682;51.114;5.882;2023-03-14T06:12:32;0.84;;;0.84;;
68700;SDS011;55682;51.114;5.882;2023-03-14T06:14:57;0.94;;;0.94;;
68700;SDS011;55682;51.114;5.882;2023-03-14T06:17:23;0.77;;;0.77;;
68700;SDS011;55682;51.114;5.882;2023-03-14T06:20:00;0.72;;;0.72;;
68700;SDS011;55682;51.114;5.882;2023-03-14T06:22:26;0.85;;;0.85;;
68700;SDS011;55682;51.114;5.882;2023-03-14T06:24:53;0.75;;;0.75;;
68700;SDS011;55682;51.114;5.882;2023-03-14T06:27:19;0.69;;;0.69;;
68700;SDS011;55682;51.114;5.882;2023-03-14T06:29:46;0.60;;;0.60;;
68700;SDS011;55682;51.114;5.882;2023-03-14T06:32:12;0.59;;;0.59;;
68700;SDS011;55682;51.114;5.882;2023-03-14T06:34:38;0.53;;;0.53;;
68700;SDS011;55682;51.114;5.882;2023-03-14T06:37:04;0.66;;;0.66;;
68700;SDS011;55682;51.114;5.882;2023-03-14T06:39:31;0.59;;;0.59;;
68700;SDS011;55682;51.114;5.882;2023-03-14T06:42:04;0.54;;;0.54;;
68700;SDS011;55682;51.114;5.882;2023-03-14T06:44:30;0.67;;;0.67;;
68700;SDS011;55682;51.114;5.882;2023-03-14T06:46:55;0.65;;;0.65;;
68700;SDS011;55682;51.114;5.882;2023-03-14T06:49:21;0.65;;;0.65;;
68700;SDS011;55682;51.114;5.882;2023-03-14T06:51:51;0.58;;;0.58;;
68700;SDS011;55682;51.114;5.882;2023-03-14T06:54:17;0.64;;;0.64;;
68700;SDS011;55682;51.114;5.882;2023-03-14T06:56:42;0.61;;;0.61;;
68700;SDS011;55682;51.114;5.882;2023-03-14T06:59:09;0.69;;;0.69;;
68700;SDS011;55682;51.114;5.882;2023-03-14T07:01:35;0.82;;;0.82;;
68700;SDS011;55682;51.114;5.882;2023-03-14T07:04:06;0.80;;;0.80;;
68700;SDS011;55682;51.114;5.882;2023-03-14T07:06:33;0.78;;;0.78;;
68700;SDS011;55682;51.114;5.882;2023-03-14T07:08:59;0.78;;;0.78;;
68700;SDS011;55682;51.114;5.882;2023-03-14T07:11:25;0.72;;;0.72;;
68700;SDS011;55682;51.114;5.882;2023-03-14T07:13:51;0.86;;;0.86;;
68700;SDS011;55682;51.114;5.882;2023-03-14T07:16:16;0.82;;;0.82;;
68700;SDS011;55682;51.114;5.882;2023-03-14T07:18:42;1.03;;;1.02;;
68700;SDS011;55682;51.114;5.882;2023-03-14T07:21:09;0.84;;;0.84;;
68700;SDS011;55682;51.114;5.882;2023-03-14T07:23:36;0.87;;;0.87;;
68700;SDS011;55682;51.114;5.882;2023-03-14T07:26:01;0.97;;;0.97;;
68700;SDS011;55682;51.114;5.882;2023-03-14T07:28:29;0.86;;;0.86;;
68700;SDS011;55682;51.114;5.882;2023-03-14T07:31:00;0.96;;;0.96;;
68700;SDS011;55682;51.114;5.882;2023-03-14T07:33:30;1.14;;;1.14;;
68700;SDS011;55682;51.114;5.882;2023-03-14T07:35:56;1.21;;;1.21;;
68700;SDS011;55682;51.114;5.882;2023-03-14T07:38:22;1.00;;;1.00;;
68700;SDS011;55682;51.114;5.882;2023-03-14T07:41:23;1.25;;;1.25;;
68700;SDS011;55682;51.114;5.882;2023-03-14T07:44:07;1.18;;;1.18;;
68700;SDS011;55682;51.114;5.882;2023-03-14T07:46:33;1.27;;;1.27;;
68700;SDS011;55682;51.114;5.882;2023-03-14T07:48:59;1.31;;;1.31;;
68700;SDS011;55682;51.114;5.882;2023-03-14T07:51:24;1.57;;;1.57;;
68700;SDS011;55682;51.114;5.882;2023-03-14T07:53:50;1.54;;;1.54;;
68700;SDS011;55682;51.114;5.882;2023-03-14T07:56:16;1.59;;;1.59;;
68700;SDS011;55682;51.114;5.882;2023-03-14T07:58:41;1.90;;;1.90;;
68700;SDS011;55682;51.114;5.882;2023-03-14T08:01:07;1.57;;;1.57;;
68700;SDS011;55682;51.114;5.882;2023-03-14T08:03:32;1.68;;;1.68;;
68700;SDS011;55682;51.114;5.882;2023-03-14T08:05:58;1.55;;;1.55;;
68700;SDS011;55682;51.114;5.882;2023-03-14T08:08:24;1.08;;;1.08;;
68700;SDS011;55682;51.114;5.882;2023-03-14T08:10:49;1.09;;;1.09;;
68700;SDS011;55682;51.114;5.882;2023-03-14T08:13:15;1.02;;;1.02;;
68700;SDS011;55682;51.114;5.882;2023-03-14T08:15:41;1.02;;;1.02;;
68700;SDS011;55682;51.114;5.882;2023-03-14T08:18:06;0.80;;;0.80;;
68700;SDS011;55682;51.114;5.882;2023-03-14T08:20:32;0.70;;;0.70;;
68700;SDS011;55682;51.114;5.882;2023-03-14T08:22:59;0.78;;;0.78;;
68700;SDS011;55682;51.114;5.882;2023-03-14T08:25:26;0.67;;;0.67;;
68700;SDS011;55682;51.114;5.882;2023-03-14T08:27:53;0.55;;;0.55;;
68700;SDS011;55682;51.114;5.882;2023-03-14T08:30:20;0.49;;;0.49;;
68700;SDS011;55682;51.114;5.882;2023-03-14T08:32:47;0.45;;;0.45;;
68700;SDS011;55682;51.114;5.882;2023-03-14T08:35:14;0.41;;;0.41;;
68700;SDS011;55682;51.114;5.882;2023-03-14T08:37:40;0.41;;;0.41;;
68700;SDS011;55682;51.114;5.882;2023-03-14T08:40:06;0.49;;;0.49;;
68700;SDS011;55682;51.114;5.882;2023-03-14T08:42:35;0.49;;;0.49;;
68700;SDS011;55682;51.114;5.882;2023-03-14T08:45:02;0.57;;;0.57;;
68700;SDS011;55682;51.114;5.882;2023-03-14T08:47:28;0.49;;;0.49;;
68700;SDS011;55682;51.114;5.882;2023-03-14T08:49:54;0.49;;;0.49;;
68700;SDS011;55682;51.114;5.882;2023-03-14T08:52:20;0.53;;;0.53;;
68700;SDS011;55682;51.114;5.882;2023-03-14T08:54:46;0.51;;;0.51;;
68700;SDS011;55682;51.114;5.882;2023-03-14T08:57:12;0.47;;;0.47;;
68700;SDS011;55682;51.114;5.882;2023-03-14T08:59:38;0.48;;;0.48;;
68700;SDS011;55682;51.114;5.882;2023-03-14T09:02:04;0.42;;;0.42;;
68700;SDS011;55682;51.114;5.882;2023-03-14T09:04:31;0.42;;;0.42;;
68700;SDS011;55682;51.114;5.882;2023-03-14T09:06:58;0.52;;;0.52;;
68700;SDS011;55682;51.114;5.882;2023-03-14T09:09:25;0.50;;;0.50;;
68700;SDS011;55682;51.114;5.882;2023-03-14T09:11:55;0.45;;;0.45;;
68700;SDS011;55682;51.114;5.882;2023-03-14T09:14:21;0.62;;;0.62;;
68700;SDS011;55682;51.114;5.882;2023-03-14T09:16:46;1.33;;;1.33;;
68700;SDS011;55682;51.114;5.882;2023-03-14T09:19:12;0.63;;;0.63;;
68700;SDS011;55682;51.114;5.882;2023-03-14T09:21:38;0.72;;;0.72;;
68700;SDS011;55682;51.114;5.882;2023-03-14T09:24:04;0.68;;;0.68;;
68700;SDS011;55682;51.114;5.882;2023-03-14T09:26:30;0.67;;;0.67;;
68700;SDS011;55682;51.114;5.882;2023-03-14T09:28:56;0.51;;;0.51;;
68700;SDS011;55682;51.114;5.882;2023-03-14T09:31:22;0.60;;;0.60;;
68700;SDS011;55682;51.114;5.882;2023-03-14T09:33:48;0.78;;;0.78;;
68700;SDS011;55682;51.114;5.882;2023-03-14T09:36:14;0.83;;;0.83;;
68700;SDS011;55682;51.114;5.882;2023-03-14T09:38:39;1.04;;;1.04;;
68700;SDS011;55682;51.114;5.882;2023-03-14T09:41:39;1.13;;;1.13;;
68700;SDS011;55682;51.114;5.882;2023-03-14T09:44:08;1.16;;;1.16;;
68700;SDS011;55682;51.114;5.882;2023-03-14T09:46:40;1.63;;;1.63;;
68700;SDS011;55682;51.114;5.882;2023-03-14T09:51:45;1.28;;;1.28;;
68700;SDS011;55682;51.114;5.882;2023-03-14T09:54:18;1.16;;;1.16;;
68700;SDS011;55682;51.114;5.882;2023-03-14T09:56:54;1.18;;;1.18;;
68700;SDS011;55682;51.114;5.882;2023-03-14T09:59:20;1.12;;;1.12;;
68700;SDS011;55682;51.114;5.882;2023-03-14T10:01:45;1.19;;;1.19;;
68700;SDS011;55682;51.114;5.882;2023-03-14T10:04:15;1.49;;;1.49;;
68700;SDS011;55682;51.114;5.882;2023-03-14T10:06:48;1.51;;;1.51;;
68700;SDS011;55682;51.114;5.882;2023-03-14T10:09:17;1.59;;;1.59;;
68700;SDS011;55682;51.114;5.882;2023-03-14T10:11:59;1.71;;;1.71;;
68700;SDS011;55682;51.114;5.882;2023-03-14T10:14:32;1.63;;;1.63;;
68700;SDS011;55682;51.114;5.882;2023-03-14T10:17:10;1.55;;;1.55;;
68700;SDS011;55682;51.114;5.882;2023-03-14T10:19:43;1.34;;;1.34;;
68700;SDS011;55682;51.114;5.882;2023-03-14T10:22:24;1.30;;;1.30;;
68700;SDS011;55682;51.114;5.882;2023-03-14T10:24:55;1.35;;;1.35;;
68700;SDS011;55682;51.114;5.882;2023-03-14T10:27:31;1.56;;;1.56;;
68700;SDS011;55682;51.114;5.882;2023-03-14T10:30:00;1.30;;;1.30;;
68700;SDS011;55682;51.114;5.882;2023-03-14T10:32:36;1.38;;;1.38;;
68700;SDS011;55682;51.114;5.882;2023-03-14T10:35:07;1.55;;;1.55;;
68700;SDS011;55682;51.114;5.882;2023-03-14T10:40:30;1.76;;;1.76;;
68700;SDS011;55682;51.114;5.882;2023-03-14T10:42:58;1.38;;;1.38;;
68700;SDS011;55682;51.114;5.882;2023-03-14T10:45:31;1.62;;;1.62;;
68700;SDS011;55682;51.114;5.882;2023-03-14T10:48:16;1.34;;;1.34;;
68700;SDS011;55682;51.114;5.882;2023-03-14T10:50:49;0.98;;;0.98;;
68700;SDS011;55682;51.114;5.882;2023-03-14T10:53:21;0.83;;;0.83;;
68700;SDS011;55682;51.114;5.882;2023-03-14T10:55:47;0.70;;;0.70;;
68700;SDS011;55682;51.114;5.882;2023-03-14T10:58:20;0.62;;;0.62;;
68700;SDS011;55682;51.114;5.882;2023-03-14T11:03:42;0.52;;;0.52;;
68700;SDS011;55682;51.114;5.882;2023-03-14T11:09:15;0.53;;;0.53;;
68700;SDS011;55682;51.114;5.882;2023-03-14T11:11:46;0.42;;;0.42;;
68700;SDS011;55682;51.114;5.882;2023-03-14T11:22:01;0.48;;;0.48;;
68700;SDS011;55682;51.114;5.882;2023-03-14T11:24:57;0.51;;;0.51;;
68700;SDS011;55682;51.114;5.882;2023-03-14T11:30:18;0.75;;;0.73;;
68700;SDS011;55682;51.114;5.882;2023-03-14T11:35:45;0.70;;;0.65;;
68700;SDS011;55682;51.114;5.882;2023-03-14T11:38:47;1.09;;;0.99;;
68700;SDS011;55682;51.114;5.882;2023-03-14T11:41:16;1.02;;;0.89;;
68700;SDS011;55682;51.114;5.882;2023-03-14T11:43:47;1.42;;;1.21;;
68700;SDS011;55682;51.114;5.882;2023-03-14T11:46:19;1.47;;;1.20;;
68700;SDS011;55682;51.114;5.882;2023-03-14T11:48:59;1.25;;;1.02;;
68700;SDS011;55682;51.114;5.882;2023-03-14T11:51:50;1.45;;;1.15;;
68700;SDS011;55682;51.114;5.882;2023-03-14T11:54:43;1.23;;;0.97;;
68700;SDS011;55682;51.114;5.882;2023-03-14T11:57:16;1.33;;;1.06;;
68700;SDS011;55682;51.114;5.882;2023-03-14T12:08:01;1.75;;;1.31;;
68700;SDS011;55682;51.114;5.882;2023-03-14T12:13:04;2.32;;;1.66;;
68700;SDS011;55682;51.114;5.882;2023-03-14T12:15:32;2.56;;;1.80;;
68700;SDS011;55682;51.114;5.882;2023-03-14T12:18:13;2.55;;;1.76;;
68700;SDS011;55682;51.114;5.882;2023-03-14T12:20:59;2.87;;;1.96;;
68700;SDS011;55682;51.114;5.882;2023-03-14T12:28:36;3.71;;;2.48;;
68700;SDS011;55682;51.114;5.882;2023-03-14T12:34:03;3.50;;;2.35;;
68700;SDS011;55682;51.114;5.882;2023-03-14T12:42:11;2.12;;;1.45;;
68700;SDS011;55682;51.114;5.882;2023-03-14T12:44:38;1.91;;;1.32;;
68700;SDS011;55682;51.114;5.882;2023-03-14T12:49:43;2.22;;;1.55;;
68700;SDS011;55682;51.114;5.882;2023-03-14T12:52:19;2.80;;;1.93;;
68700;SDS011;55682;51.114;5.882;2023-03-14T12:57:26;4.01;;;2.71;;
68700;SDS011;55682;51.114;5.882;2023-03-14T13:00:01;3.81;;;2.51;;
68700;SDS011;55682;51.114;5.882;2023-03-14T13:02:39;3.96;;;2.59;;
68700;SDS011;55682;51.114;5.882;2023-03-14T13:15:19;4.35;;;2.86;;
68700;SDS011;55682;51.114;5.882;2023-03-14T13:17:56;5.33;;;3.50;;
68700;SDS011;55682;51.114;5.882;2023-03-14T13:20:34;5.23;;;3.44;;
68700;SDS011;55682;51.114;5.882;2023-03-14T13:23:03;5.41;;;3.50;;
68700;SDS011;55682;51.114;5.882;2023-03-14T13:25:31;5.82;;;3.76;;
68700;SDS011;55682;51.114;5.882;2023-03-14T13:28:00;4.97;;;3.24;;
68700;SDS011;55682;51.114;5.882;2023-03-14T13:30:35;5.01;;;3.32;;
68700;SDS011;55682;51.114;5.882;2023-03-14T13:33:05;4.55;;;2.97;;
68700;SDS011;55682;51.114;5.882;2023-03-14T13:35:39;4.76;;;3.09;;
68700;SDS011;55682;51.114;5.882;2023-03-14T13:38:20;4.70;;;3.09;;
68700;SDS011;55682;51.114;5.882;2023-03-14T13:40:48;4.78;;;3.20;;
68700;SDS011;55682;51.114;5.882;2023-03-14T13:45:51;4.82;;;3.14;;
68700;SDS011;55682;51.114;5.882;2023-03-14T13:48:46;5.36;;;3.47;;
68700;SDS011;55682;51.114;5.882;2023-03-14T13:51:18;5.27;;;3.42;;
68700;SDS011;55682;51.114;5.882;2023-03-14T13:53:53;5.31;;;3.47;;
68700;SDS011;55682;51.114;5.882;2023-03-14T13:56:20;5.95;;;3.92;;
68700;SDS011;55682;51.114;5.882;2023-03-14T13:58:48;5.75;;;3.80;;
68700;SDS011;55682;51.114;5.882;2023-03-14T14:01:31;5.77;;;3.86;;
68700;SDS011;55682;51.114;5.882;2023-03-14T14:04:07;5.17;;;3.51;;
68700;SDS011;55682;51.114;5.882;2023-03-14T14:06:46;4.63;;;3.17;;
68700;SDS011;55682;51.114;5.882;2023-03-14T14:09:27;5.52;;;3.70;;
68700;SDS011;55682;51.114;5.882;2023-03-14T14:12:46;4.96;;;3.32;;
68700;SDS011;55682;51.114;5.882;2023-03-14T14:14:56;4.86;;;3.27;;
68700;SDS011;55682;51.114;5.882;2023-03-14T14:17:31;4.54;;;3.12;;
68700;SDS011;55682;51.114;5.882;2023-03-14T14:20:02;4.98;;;3.41;;
68700;SDS011;55682;51.114;5.882;2023-03-14T14:22:32;4.45;;;3.05;;
68700;SDS011;55682;51.114;5.882;2023-03-14T14:24:58;5.44;;;3.69;;
68700;SDS011;55682;51.114;5.882;2023-03-14T14:27:44;4.68;;;3.21;;
68700;SDS011;55682;51.114;5.882;2023-03-14T14:32:42;6.00;;;3.90;;
68700;SDS011;55682;51.114;5.882;2023-03-14T14:35:08;6.05;;;3.93;;
68700;SDS011;55682;51.114;5.882;2023-03-14T14:37:46;5.29;;;3.45;;
68700;SDS011;55682;51.114;5.882;2023-03-14T14:42:46;4.96;;;3.26;;
68700;SDS011;55682;51.114;5.882;2023-03-14T14:45:13;5.04;;;3.34;;
68700;SDS011;55682;51.114;5.882;2023-03-14T14:50:33;4.91;;;3.32;;
68700;SDS011;55682;51.114;5.882;2023-03-14T14:56:04;4.66;;;3.19;;
68700;SDS011;55682;51.114;5.882;2023-03-14T14:58:40;4.55;;;3.08;;
68700;SDS011;55682;51.114;5.882;2023-03-14T15:01:17;4.12;;;2.76;;
68700;SDS011;55682;51.114;5.882;2023-03-14T15:03:52;3.77;;;2.53;;
68700;SDS011;55682;51.114;5.882;2023-03-14T15:06:19;5.82;;;3.89;;
68700;SDS011;55682;51.114;5.882;2023-03-14T15:08:46;4.87;;;3.24;;
68700;SDS011;55682;51.114;5.882;2023-03-14T15:11:16;4.13;;;2.72;;
68700;SDS011;55682;51.114;5.882;2023-03-14T15:13:43;3.51;;;2.28;;
68700;SDS011;55682;51.114;5.882;2023-03-14T15:16:14;3.83;;;2.53;;
68700;SDS011;55682;51.114;5.882;2023-03-14T15:18:42;3.18;;;2.15;;
68700;SDS011;55682;51.114;5.882;2023-03-14T15:21:09;3.30;;;2.28;;
68700;SDS011;55682;51.114;5.882;2023-03-14T15:23:36;3.10;;;2.12;;
68700;SDS011;55682;51.114;5.882;2023-03-14T15:26:02;3.26;;;2.20;;
68700;SDS011;55682;51.114;5.882;2023-03-14T15:28:30;3.73;;;2.50;;
68700;SDS011;55682;51.114;5.882;2023-03-14T15:30:56;3.25;;;2.19;;
68700;SDS011;55682;51.114;5.882;2023-03-14T15:33:24;3.06;;;2.07;;
68700;SDS011;55682;51.114;5.882;2023-03-14T15:35:51;3.57;;;2.41;;
68700;SDS011;55682;51.114;5.882;2023-03-14T15:38:19;3.48;;;2.36;;
68700;SDS011;55682;51.114;5.882;2023-03-14T15:40:48;3.53;;;2.38;;
68700;SDS011;55682;51.114;5.882;2023-03-14T15:43:15;4.09;;;2.75;;
68700;SDS011;55682;51.114;5.882;2023-03-14T15:45:41;5.46;;;3.62;;
68700;SDS011;55682;51.114;5.882;2023-03-14T15:48:11;3.96;;;2.63;;
68700;SDS011;55682;51.114;5.882;2023-03-14T15:50:44;2.99;;;2.00;;
68700;SDS011;55682;51.114;5.882;2023-03-14T15:53:09;2.88;;;1.95;;
68700;SDS011;55682;51.114;5.882;2023-03-14T15:55:35;3.58;;;2.50;;
68700;SDS011;55682;51.114;5.882;2023-03-14T15:58:01;4.93;;;3.61;;
68700;SDS011;55682;51.114;5.882;2023-03-14T16:00:27;4.36;;;3.35;;
68700;SDS011;55682;51.114;5.882;2023-03-14T16:02:54;2.72;;;2.16;;
68700;SDS011;55682;51.114;5.882;2023-03-14T16:05:19;1.99;;;1.59;;
68700;SDS011;55682;51.114;5.882;2023-03-14T16:07:45;2.20;;;1.70;;
68700;SDS011;55682;51.114;5.882;2023-03-14T16:10:12;2.11;;;1.58;;
68700;SDS011;55682;51.114;5.882;2023-03-14T16:12:39;2.22;;;1.65;;
68700;SDS011;55682;51.114;5.882;2023-03-14T16:15:06;2.21;;;1.66;;
68700;SDS011;55682;51.114;5.882;2023-03-14T16:17:32;2.63;;;1.95;;
68700;SDS011;55682;51.114;5.882;2023-03-14T16:19:59;2.47;;;1.80;;
68700;SDS011;55682;51.114;5.882;2023-03-14T16:22:24;2.59;;;1.87;;
68700;SDS011;55682;51.114;5.882;2023-03-14T16:24:50;3.36;;;2.35;;
68700;SDS011;55682;51.114;5.882;2023-03-14T16:27:16;3.39;;;2.33;;
68700;SDS011;55682;51.114;5.882;2023-03-14T16:29:42;3.15;;;2.17;;
68700;SDS011;55682;51.114;5.882;2023-03-14T16:32:08;2.98;;;2.07;;
68700;SDS011;55682;51.114;5.882;2023-03-14T16:34:34;3.38;;;2.35;;